createdAt,value
2019-01-10T00:02:18.134Z,51.96
2019-01-10T00:04:45.088Z,51.77
2019-01-10T00:07:12.740Z,51.86
2019-01-10T00:09:39.356Z,51.82
2019-01-10T00:12:06.448Z,52.11
2019-01-10T00:14:33.491Z,52.32
2019-01-10T00:17:00.133Z,52.32
2019-01-10T00:19:27.023Z,52.07
2019-01-10T00:21:53.674Z,52.15
2019-01-10T00:24:20.525Z,52.26
2019-01-10T00:26:47.203Z,52.46
2019-01-10T00:29:14.084Z,53.02
2019-01-10T00:31:40.680Z,53.23
2019-01-10T00:34:07.584Z,53.04
2019-01-10T00:36:34.450Z,53.62
2019-01-10T00:39:01.286Z,53.43
2019-01-10T00:41:28.258Z,53.31
2019-01-10T00:43:58.161Z,52.78
2019-01-10T00:46:24.754Z,52.65
2019-01-10T00:48:51.434Z,52.77
2019-01-10T00:51:20.338Z,52.83
2019-01-10T00:53:54.679Z,52.65
2019-01-10T00:56:20.460Z,52.41
2019-01-10T00:58:47.408Z,52.65
2019-01-10T01:01:14.264Z,52.62
2019-01-10T01:03:41.045Z,52.30
2019-01-10T01:06:07.655Z,52.41
2019-01-10T01:08:34.535Z,52.51
2019-01-10T01:11:11.417Z,52.62
2019-01-10T01:13:37.742Z,53.09
2019-01-10T01:16:04.652Z,53.20
2019-01-10T01:18:31.277Z,53.42
2019-01-10T01:21:02.878Z,53.67
2019-01-10T01:23:26.235Z,53.85
2019-01-10T01:25:52.939Z,53.81
2019-01-10T01:28:19.804Z,54.04
2019-01-10T01:30:59.494Z,54.09
2019-01-10T01:33:25.851Z,54.15
2019-01-10T01:35:53.216Z,54.37
2019-01-10T01:38:20.005Z,54.62
2019-01-10T01:40:47.034Z,54.55
2019-01-10T01:43:14.189Z,54.83
2019-01-10T01:45:41.590Z,54.52
2019-01-10T01:48:08.991Z,54.53
2019-01-10T01:50:35.876Z,54.60
2019-01-10T01:53:04.407Z,54.53
2019-01-10T01:55:31.396Z,54.64
2019-01-10T01:57:58.403Z,54.49
2019-01-10T02:00:25.841Z,54.57
2019-01-10T02:02:52.498Z,54.07
2019-01-10T02:05:19.753Z,53.64
2019-01-10T02:07:46.331Z,53.58
2019-01-10T02:10:13.213Z,53.44
2019-01-10T02:12:41.555Z,53.29
2019-01-10T02:15:10.058Z,52.62
2019-01-10T02:17:36.994Z,52.24
2019-01-10T02:20:03.619Z,52.65
2019-01-10T02:22:30.565Z,52.79
2019-01-10T02:24:57.393Z,52.75
2019-01-10T02:27:24.539Z,52.71
2019-01-10T02:29:51.370Z,53.06
2019-01-10T02:32:18.334Z,53.35
2019-01-10T02:34:45.747Z,53.21
2019-01-10T02:37:12.417Z,52.53
2019-01-10T02:39:39.056Z,52.39
2019-01-10T02:42:06.519Z,52.76
2019-01-10T02:44:33.394Z,52.79
2019-01-10T02:47:02.131Z,52.65
2019-01-10T02:49:28.704Z,52.71
2019-01-10T02:51:55.575Z,52.86
2019-01-10T02:54:22.726Z,53.02
2019-01-10T02:56:49.824Z,52.98
2019-01-10T02:59:16.667Z,52.64
2019-01-10T03:01:43.378Z,52.84
2019-01-10T03:04:11.253Z,52.92
2019-01-10T03:06:37.877Z,52.81
2019-01-10T03:09:04.763Z,52.64
2019-01-10T03:11:33.368Z,52.80
2019-01-10T03:13:59.952Z,53.75
2019-01-10T03:16:27.039Z,54.41
2019-01-10T03:18:53.786Z,54.26
2019-01-10T03:21:20.428Z,54.05
2019-01-10T03:23:47.337Z,54.42
2019-01-10T03:26:13.953Z,54.44
2019-01-10T03:28:42.549Z,54.73
2019-01-10T03:31:09.183Z,54.74
2019-01-10T03:33:35.941Z,54.57
2019-01-10T03:36:02.854Z,54.19
2019-01-10T03:38:29.538Z,53.54
2019-01-10T03:40:56.114Z,53.76
2019-01-10T03:43:22.996Z,53.46
2019-01-10T03:45:50.196Z,53.53
2019-01-10T03:48:17.019Z,53.20
2019-01-10T03:50:43.657Z,53.14
2019-01-10T03:53:11.777Z,53.61
2019-01-10T03:55:38.416Z,53.67
2019-01-10T03:58:05.047Z,54.10
2019-01-10T04:00:31.726Z,53.87
2019-01-10T04:02:58.347Z,53.62
2019-01-10T04:05:25.245Z,53.29
2019-01-10T04:07:52.477Z,53.17
2019-01-10T04:10:19.222Z,53.12
2019-01-10T04:12:46.454Z,53.31
2019-01-10T04:15:13.549Z,53.52
2019-01-10T04:17:40.251Z,53.70
2019-01-10T04:20:07.165Z,54.18
2019-01-10T04:22:34.168Z,54.09
2019-01-10T04:25:00.838Z,54.22
2019-01-10T04:27:28.188Z,54.29
2019-01-10T04:29:54.848Z,53.94
2019-01-10T04:32:21.743Z,53.85
2019-01-10T04:34:49.744Z,54.03
2019-01-10T04:37:17.173Z,54.07
2019-01-10T04:39:44.019Z,53.84
2019-01-10T04:42:12.154Z,53.66
2019-01-10T04:44:39.562Z,53.79
2019-01-10T04:47:08.388Z,54.28
2019-01-10T04:49:39.485Z,53.98
2019-01-10T04:52:09.790Z,53.38
2019-01-10T04:54:38.888Z,53.37
2019-01-10T04:59:53.968Z,53.74
2019-01-10T05:02:27.209Z,53.66
2019-01-10T05:07:39.360Z,53.40
2019-01-10T05:10:06.624Z,53.61
2019-01-10T05:12:34.101Z,53.43
2019-01-10T05:15:16.891Z,53.41
2019-01-10T05:17:48.316Z,53.54
2019-01-10T05:20:24.327Z,53.90
2019-01-10T05:23:09.942Z,54.07
2019-01-10T05:25:54.622Z,54.29
2019-01-10T05:28:22.782Z,54.08
2019-01-10T05:30:49.609Z,54.01
2019-01-10T05:33:18.348Z,53.71
2019-01-10T05:38:32.701Z,54.15
2019-01-10T05:41:03.255Z,54.32
2019-01-10T05:43:29.910Z,54.17
2019-01-10T05:45:58.478Z,53.69
2019-01-10T05:48:26.783Z,53.97
2019-01-10T05:51:11.727Z,54.39
2019-01-10T05:53:42.408Z,54.96
2019-01-10T05:56:15.653Z,54.68
2019-01-10T05:58:44.543Z,55.17
2019-01-10T06:01:11.110Z,55.65
2019-01-10T06:03:40.340Z,56.20
2019-01-10T06:06:09.926Z,56.45
2019-01-10T06:08:36.319Z,57.06
2019-01-10T06:11:03.879Z,56.59
2019-01-10T06:13:32.148Z,55.81
2019-01-10T06:15:59.356Z,56.19
2019-01-10T06:18:26.264Z,56.80
2019-01-10T06:20:53.199Z,57.10
2019-01-10T06:23:23.152Z,56.90
2019-01-10T06:25:50.839Z,56.45
2019-01-10T06:28:23.246Z,56.23
2019-01-10T06:30:50.363Z,56.30
2019-01-10T06:33:18.029Z,56.33
2019-01-10T06:35:45.393Z,55.58
2019-01-10T06:38:14.462Z,55.04
2019-01-10T06:40:41.369Z,54.87
2019-01-10T06:43:08.574Z,54.82
2019-01-10T06:45:35.375Z,54.79
2019-01-10T06:48:02.593Z,54.80
2019-01-10T06:50:29.610Z,55.22
2019-01-10T06:52:57.329Z,55.21
2019-01-10T06:55:24.743Z,54.50
2019-01-10T06:57:53.099Z,54.39
2019-01-10T07:00:19.743Z,54.20
2019-01-10T07:02:46.879Z,54.70
2019-01-10T07:05:14.234Z,54.89
2019-01-10T07:07:40.899Z,54.62
2019-01-10T07:10:09.269Z,54.56
2019-01-10T07:12:35.937Z,54.81
2019-01-10T07:15:02.658Z,54.74
2019-01-10T07:17:31.550Z,54.63
2019-01-10T07:19:58.170Z,54.33
2019-01-10T07:22:24.934Z,54.41
2019-01-10T07:24:51.830Z,54.75
2019-01-10T07:27:19.495Z,54.59
2019-01-10T07:29:46.393Z,54.22
2019-01-10T07:32:14.274Z,54.37
2019-01-10T07:34:41.173Z,54.01
2019-01-10T07:37:13.083Z,54.13
2019-01-10T07:39:37.791Z,54.05
2019-01-10T07:42:04.402Z,53.68
2019-01-10T07:44:32.578Z,53.22
2019-01-10T07:46:59.465Z,53.69
2019-01-10T07:49:26.847Z,53.73
2019-01-10T07:51:54.820Z,53.46
2019-01-10T07:54:21.768Z,52.85
2019-01-10T07:56:48.431Z,52.61
2019-01-10T07:59:15.902Z,54.14
2019-01-10T08:01:44.321Z,54.03
2019-01-10T08:04:11.921Z,52.99
2019-01-10T08:06:39.419Z,53.59
2019-01-10T08:09:06.507Z,53.80
2019-01-10T08:11:35.137Z,53.23
2019-01-10T08:14:03.950Z,53.21
2019-01-10T08:16:30.558Z,52.65
2019-01-10T08:18:57.223Z,53.48
2019-01-10T08:21:24.151Z,53.46
2019-01-10T08:23:50.776Z,52.84
2019-01-10T08:26:17.665Z,52.70
2019-01-10T08:28:44.713Z,52.08
2019-01-10T08:31:11.303Z,51.40
2019-01-10T08:33:37.909Z,50.93
2019-01-10T08:36:06.068Z,51.37
2019-01-10T08:38:34.672Z,51.62
2019-01-10T08:41:01.405Z,50.83
2019-01-10T08:43:28.172Z,51.44
2019-01-10T08:45:55.233Z,50.53
2019-01-10T08:48:22.101Z,50.79
2019-01-10T08:50:49.356Z,49.47
2019-01-10T08:53:18.053Z,50.19
2019-01-10T08:55:44.883Z,49.48
2019-01-10T08:58:16.554Z,49.97
2019-01-10T09:00:44.858Z,49.69
2019-01-10T09:03:13.287Z,49.71
2019-01-10T09:05:40.748Z,49.74
2019-01-10T09:08:15.294Z,48.80
2019-01-10T09:13:34.823Z,49.42
2019-01-10T09:18:52.186Z,48.99
2019-01-10T09:26:50.458Z,48.09
2019-01-10T09:29:17.957Z,47.75
2019-01-10T09:31:45.375Z,47.63
2019-01-10T09:34:12.310Z,47.49
2019-01-10T09:36:39.993Z,47.15
2019-01-10T09:39:07.220Z,46.53
2019-01-10T09:41:36.679Z,47.43
2019-01-10T09:44:08.630Z,47.66
2019-01-10T09:46:39.500Z,47.68
2019-01-10T09:49:14.947Z,47.64
2019-01-10T09:51:39.756Z,47.61
2019-01-10T09:54:09.441Z,47.25
2019-01-10T09:56:36.835Z,47.78
2019-01-10T09:59:06.525Z,47.61
2019-01-10T10:01:33.586Z,47.39
2019-01-10T10:04:04.206Z,47.32
2019-01-10T10:06:42.401Z,47.84
2019-01-10T10:09:16.879Z,48.04
2019-01-10T10:11:44.822Z,47.90
2019-01-10T10:14:14.148Z,48.02
2019-01-10T10:16:43.843Z,47.64
2019-01-10T10:19:15.833Z,47.41
2019-01-10T10:21:40.209Z,47.35
2019-01-10T10:24:33.044Z,46.29
2019-01-10T10:27:02.040Z,46.25
2019-01-10T10:29:43.275Z,46.11
2019-01-10T10:32:10.331Z,45.89
2019-01-10T10:34:39.288Z,46.13
2019-01-10T10:37:06.719Z,45.95
2019-01-10T10:42:24.063Z,45.21
2019-01-10T11:01:56.212Z,44.54
2019-01-10T11:13:19.157Z,43.83
2019-01-10T11:18:38.693Z,43.99
2019-01-10T11:29:44.752Z,42.51
2019-01-10T11:35:08.626Z,42.04
2019-01-10T11:42:51.738Z,42.34
2019-01-10T11:45:18.750Z,42.41
2019-01-10T11:47:47.140Z,42.09
2019-01-10T11:50:13.901Z,40.78
2019-01-10T11:52:40.697Z,40.70
2019-01-10T11:55:07.305Z,41.31
2019-01-10T11:57:33.952Z,39.70
2019-01-10T12:00:00.852Z,40.62
2019-01-10T12:02:36.079Z,41.15
2019-01-10T12:04:55.871Z,39.92
2019-01-10T12:07:23.030Z,38.65
2019-01-10T12:09:49.909Z,38.79
2019-01-10T12:12:17.330Z,38.81
2019-01-10T12:14:44.016Z,39.52
2019-01-10T12:17:13.823Z,38.36
2019-01-10T12:19:40.492Z,39.58
2019-01-10T12:22:07.074Z,39.12
2019-01-10T12:24:33.724Z,39.29
2019-01-10T12:27:03.934Z,39.22
2019-01-10T12:29:36.140Z,38.29
2019-01-10T12:31:59.146Z,38.83
2019-01-10T12:34:25.864Z,36.40
2019-01-10T12:37:00.233Z,38.04
2019-01-10T12:39:21.246Z,38.62
2019-01-10T12:41:47.988Z,37.76
2019-01-10T12:44:14.627Z,37.67
2019-01-10T12:46:42.018Z,37.70
2019-01-10T12:49:08.698Z,37.36
2019-01-10T12:51:35.327Z,37.00
2019-01-10T12:54:01.953Z,36.36
2019-01-10T12:56:28.589Z,37.62
2019-01-10T12:58:55.384Z,37.34
2019-01-10T13:01:22.037Z,37.17
2019-01-10T13:03:48.838Z,36.78
2019-01-10T13:06:15.474Z,36.07
2019-01-10T13:08:42.078Z,35.93
2019-01-10T13:11:08.692Z,35.98
2019-01-10T13:13:35.617Z,35.60
2019-01-10T13:16:02.534Z,35.60
2019-01-10T13:18:29.520Z,34.17
2019-01-10T13:20:56.164Z,34.74
2019-01-10T13:23:22.790Z,35.58
2019-01-10T13:25:49.654Z,35.73
2019-01-10T13:28:18.041Z,34.88
2019-01-10T13:30:44.736Z,35.13
2019-01-10T13:33:11.668Z,35.58
2019-01-10T13:35:38.338Z,35.38
2019-01-10T13:38:05.238Z,34.89
2019-01-10T13:40:31.884Z,34.17
2019-01-10T13:42:58.759Z,34.43
2019-01-10T13:45:25.380Z,34.82
2019-01-10T13:47:53.703Z,35.77
2019-01-10T13:50:20.328Z,35.42
2019-01-10T13:52:48.192Z,36.09
2019-01-10T13:55:14.913Z,35.67
2019-01-10T13:57:43.344Z,35.51
2019-01-10T14:00:09.975Z,35.72
2019-01-10T14:02:37.010Z,35.95
2019-01-10T14:05:03.909Z,35.21
2019-01-10T14:07:32.720Z,35.59
2019-01-10T14:09:59.320Z,36.65
2019-01-10T14:12:25.923Z,36.47
2019-01-10T14:14:52.537Z,36.79
2019-01-10T14:17:21.722Z,36.51
2019-01-10T14:19:48.467Z,36.08
2019-01-10T14:22:15.092Z,36.62
2019-01-10T14:24:42.012Z,36.23
2019-01-10T14:27:08.633Z,36.42
2019-01-10T14:29:35.236Z,37.07
2019-01-10T14:32:02.144Z,36.84
2019-01-10T14:34:28.770Z,37.42
2019-01-10T14:36:55.388Z,37.15
2019-01-10T14:39:22.176Z,37.57
2019-01-10T14:41:48.812Z,37.51
2019-01-10T14:44:15.434Z,37.81
2019-01-10T14:46:42.306Z,37.02
2019-01-10T14:49:09.310Z,37.65
2019-01-10T14:51:36.242Z,37.26
2019-01-10T14:54:02.954Z,37.82
2019-01-10T14:56:29.576Z,37.20
2019-01-10T14:58:56.463Z,38.53
2019-01-10T15:01:23.444Z,38.55
2019-01-10T15:03:50.319Z,38.31
2019-01-10T15:06:18.162Z,38.15
2019-01-10T15:08:44.916Z,37.69
2019-01-10T15:11:11.522Z,38.40
2019-01-10T15:13:38.157Z,38.76
2019-01-10T15:16:04.776Z,38.71
2019-01-10T15:18:34.103Z,39.34
2019-01-10T15:21:00.710Z,39.42
2019-01-10T15:23:28.002Z,39.28
2019-01-10T15:25:54.869Z,39.12
2019-01-10T15:28:23.539Z,39.21
2019-01-10T15:30:50.163Z,39.14
2019-01-10T15:33:16.822Z,39.11
2019-01-10T15:35:43.901Z,38.96
2019-01-10T15:38:14.005Z,38.64
2019-01-10T15:40:40.804Z,38.79
2019-01-10T15:43:07.833Z,39.22
2019-01-10T15:45:34.838Z,39.48
2019-01-10T15:48:01.708Z,39.96
2019-01-10T15:50:28.493Z,39.45
2019-01-10T15:52:55.201Z,39.78
2019-01-10T15:55:21.986Z,39.78
2019-01-10T15:57:49.320Z,39.25
2019-01-10T16:00:15.954Z,38.80
2019-01-10T16:02:42.588Z,39.26
2019-01-10T16:05:09.181Z,38.76
2019-01-10T16:07:36.044Z,39.59
2019-01-10T16:10:02.746Z,39.39
2019-01-10T16:12:29.395Z,39.28
2019-01-10T16:14:56.106Z,39.32
2019-01-10T16:17:25.626Z,39.04
2019-01-10T16:19:51.172Z,39.01
2019-01-10T16:22:19.582Z,39.05
2019-01-10T16:24:46.246Z,39.18
2019-01-10T16:27:12.826Z,38.65
2019-01-10T16:29:39.517Z,40.08
2019-01-10T16:32:06.287Z,39.98
2019-01-10T16:34:32.904Z,40.46
2019-01-10T16:36:59.504Z,40.10
2019-01-10T16:39:26.298Z,40.12
2019-01-10T16:41:52.932Z,39.81
2019-01-10T16:44:19.799Z,39.30
2019-01-10T16:46:46.436Z,39.05
2019-01-10T16:49:14.189Z,38.94
2019-01-10T16:51:40.857Z,38.95
2019-01-10T16:54:07.468Z,38.83
2019-01-10T16:56:34.112Z,39.21
2019-01-10T16:59:03.490Z,38.98
2019-01-10T17:01:30.183Z,38.80
2019-01-10T17:03:56.795Z,39.06
2019-01-10T17:06:23.513Z,38.69
2019-01-10T17:08:52.550Z,39.03
2019-01-10T17:11:19.942Z,38.91
2019-01-10T17:13:46.904Z,38.53
2019-01-10T17:16:15.046Z,38.61
2019-01-10T17:18:41.675Z,38.77
2019-01-10T17:21:08.337Z,38.99
2019-01-10T17:23:34.923Z,38.53
2019-01-10T17:26:01.769Z,38.81
2019-01-10T17:28:28.735Z,38.71
2019-01-10T17:30:55.461Z,38.73
2019-01-10T17:33:22.194Z,38.76
2019-01-10T17:35:50.466Z,38.52
2019-01-10T17:38:17.333Z,38.36
2019-01-10T17:40:44.016Z,38.89
2019-01-10T17:43:10.926Z,38.79
2019-01-10T17:45:37.833Z,39.05
2019-01-10T17:48:04.484Z,39.25
2019-01-10T17:50:31.417Z,39.33
2019-01-10T17:52:58.173Z,38.96
2019-01-10T17:55:25.074Z,38.33
2019-01-10T17:57:51.990Z,38.86
2019-01-10T18:00:23.606Z,38.51
2019-01-10T18:02:52.538Z,38.71
2019-01-10T18:05:20.482Z,38.62
2019-01-10T18:07:47.245Z,38.54
2019-01-10T18:10:14.081Z,38.71
2019-01-10T18:12:40.674Z,38.46
2019-01-10T18:15:07.319Z,38.77
2019-01-10T18:17:34.220Z,38.67
2019-01-10T18:20:02.217Z,38.73
2019-01-10T18:22:28.834Z,38.81
2019-01-10T18:24:55.481Z,39.29
2019-01-10T18:27:22.392Z,39.64
2019-01-10T18:29:51.569Z,39.93
2019-01-10T18:32:18.496Z,39.55
2019-01-10T18:34:45.115Z,39.90
2019-01-10T18:37:11.716Z,40.38
2019-01-10T18:39:40.614Z,39.87
2019-01-10T18:42:07.561Z,39.83
2019-01-10T18:44:34.149Z,40.30
2019-01-10T18:47:00.764Z,40.41
2019-01-10T18:49:27.662Z,40.32
2019-01-10T18:51:55.653Z,40.47
2019-01-10T18:54:22.656Z,40.37
2019-01-10T18:56:50.531Z,41.07
2019-01-10T18:59:17.146Z,40.70
2019-01-10T19:01:43.786Z,41.03
2019-01-10T19:04:10.392Z,41.76
2019-01-10T19:06:36.998Z,41.61
2019-01-10T19:09:06.279Z,42.09
2019-01-10T19:11:33.973Z,41.69
2019-01-10T19:14:03.077Z,41.54
2019-01-10T19:16:29.908Z,42.05
2019-01-10T19:18:58.882Z,42.18
2019-01-10T19:21:26.500Z,42.55
2019-01-10T19:23:53.132Z,42.69
2019-01-10T19:26:21.413Z,42.94
2019-01-10T19:28:48.080Z,43.10
2019-01-10T19:31:14.685Z,43.02
2019-01-10T19:33:41.318Z,42.95
2019-01-10T19:36:09.175Z,43.16
2019-01-10T19:38:36.099Z,43.89
2019-01-10T19:41:06.396Z,43.97
2019-01-10T19:43:31.343Z,44.15
2019-01-10T19:45:59.167Z,44.33
2019-01-10T19:48:28.480Z,44.36
2019-01-10T19:50:58.468Z,43.99
2019-01-10T19:53:26.358Z,43.90
2019-01-10T19:55:54.325Z,43.69
2019-01-10T19:58:22.717Z,44.02
2019-01-10T20:00:49.358Z,43.80
2019-01-10T20:03:16.288Z,43.68
2019-01-10T20:05:42.874Z,43.20
2019-01-10T20:08:09.520Z,42.63
2019-01-10T20:10:38.981Z,43.12
2019-01-10T20:13:06.733Z,43.43
2019-01-10T20:15:35.810Z,44.39
2019-01-10T20:18:02.585Z,44.23
2019-01-10T20:20:42.024Z,44.38
2019-01-10T20:23:08.623Z,44.01
2019-01-10T20:25:37.538Z,44.02
2019-01-10T20:28:03.895Z,44.13
2019-01-10T20:30:30.554Z,44.90
2019-01-10T20:32:57.579Z,44.93
2019-01-10T20:35:24.172Z,44.72
2019-01-10T20:37:52.051Z,44.23
2019-01-10T20:40:18.715Z,44.24
2019-01-10T20:42:45.616Z,44.01
2019-01-10T20:45:12.220Z,44.09
2019-01-10T20:47:38.857Z,43.81
2019-01-10T20:50:05.764Z,43.48
2019-01-10T20:52:32.929Z,43.50
2019-01-10T20:55:00.165Z,43.37
2019-01-10T20:57:26.964Z,43.32
2019-01-10T20:59:54.805Z,43.60
2019-01-10T21:02:22.047Z,43.76
2019-01-10T21:04:48.885Z,43.47
2019-01-10T21:07:16.735Z,43.38
2019-01-10T21:09:43.431Z,42.88
2019-01-10T21:12:10.014Z,42.88
2019-01-10T21:14:37.393Z,43.09
2019-01-10T21:17:04.087Z,42.98
2019-01-10T21:19:30.653Z,42.84
2019-01-10T21:22:04.102Z,43.02
2019-01-10T21:24:30.444Z,43.15
2019-01-10T21:26:57.098Z,42.98
2019-01-10T21:29:23.702Z,42.92
2019-01-10T21:31:51.705Z,43.15
2019-01-10T21:34:18.299Z,43.07
2019-01-10T21:36:47.339Z,43.49
2019-01-10T21:39:13.761Z,43.46
2019-01-10T21:41:40.994Z,43.39
2019-01-10T21:44:07.605Z,43.31
2019-01-10T21:46:34.332Z,43.37
2019-01-10T21:49:00.917Z,43.27
2019-01-10T21:51:38.117Z,43.18
2019-01-10T21:54:04.726Z,43.76
2019-01-10T21:56:31.406Z,43.62
2019-01-10T21:58:58.010Z,43.38
2019-01-10T22:01:27.688Z,43.32
2019-01-10T22:03:54.596Z,43.27
2019-01-10T22:06:23.936Z,43.54
2019-01-10T22:08:50.549Z,43.50
2019-01-10T22:11:17.395Z,43.78
2019-01-10T22:13:43.995Z,44.03
2019-01-10T22:16:10.740Z,43.83
2019-01-10T22:18:41.478Z,43.81
2019-01-10T22:21:05.924Z,43.96
2019-01-10T22:23:32.705Z,43.95
2019-01-10T22:25:59.586Z,44.14
2019-01-10T22:28:26.207Z,44.46
2019-01-10T22:30:53.141Z,44.75
2019-01-10T22:33:19.756Z,44.85
2019-01-10T22:35:46.608Z,44.36
2019-01-10T22:38:14.305Z,44.05
2019-01-10T22:40:40.992Z,44.33
2019-01-10T22:43:08.050Z,43.99
2019-01-10T22:45:34.814Z,43.96
2019-01-10T22:48:01.423Z,44.00
2019-01-10T22:50:29.049Z,43.69
2019-01-10T22:52:58.423Z,43.44
2019-01-10T22:55:25.057Z,43.42
2019-01-10T22:57:53.348Z,43.68
2019-01-10T23:00:20.030Z,43.79
2019-01-10T23:02:47.572Z,42.99
2019-01-10T23:05:14.189Z,43.34
2019-01-10T23:07:41.072Z,43.25
2019-01-10T23:10:07.683Z,43.19
2019-01-10T23:12:37.348Z,42.58
2019-01-10T23:15:04.212Z,42.38
2019-01-10T23:17:31.085Z,42.50
2019-01-10T23:19:58.730Z,42.08
2019-01-10T23:22:26.429Z,41.84
2019-01-10T23:24:53.687Z,41.05
2019-01-10T23:27:20.328Z,42.03
2019-01-10T23:29:47.010Z,41.58
2019-01-10T23:32:23.422Z,41.20
2019-01-10T23:34:50.013Z,41.87
2019-01-10T23:37:16.588Z,41.36
2019-01-10T23:39:43.410Z,41.67
2019-01-10T23:42:10.135Z,41.64
2019-01-10T23:44:36.776Z,41.01
2019-01-10T23:47:03.502Z,40.93
2019-01-10T23:49:30.096Z,40.98
2019-01-10T23:51:56.839Z,40.75
2019-01-10T23:54:23.969Z,41.04
2019-01-10T23:56:50.593Z,40.97
2019-01-10T23:59:17.215Z,40.86
